sensor_id;sensor_type;location;lat;lon;timestamp;P1;durP1;ratioP1;P2;durP2;ratioP2
11346;SDS011;5728;42.722;23.258;2024-03-06T00:01:57;17.33;;;11.13;;
11346;SDS011;5728;42.722;23.258;2024-03-06T00:04:25;17.63;;;11.63;;
11346;SDS011;5728;42.722;23.258;2024-03-06T00:06:53;20.90;;;12.20;;
11346;SDS011;5728;42.722;23.258;2024-03-06T00:09:20;19.13;;;11.60;;
11346;SDS011;5728;42.722;23.258;2024-03-06T00:11:47;16.90;;;11.10;;
11346;SDS011;5728;42.722;23.258;2024-03-06T00:14:16;17.00;;;10.10;;
11346;SDS011;5728;42.722;23.258;2024-03-06T00:16:43;17.70;;;10.50;;
11346;SDS011;5728;42.722;23.258;2024-03-06T00:19:10;23.33;;;11.87;;
11346;SDS011;5728;42.722;23.258;2024-03-06T00:21:38;21.60;;;11.47;;
11346;SDS011;5728;42.722;23.258;2024-03-06T00:24:05;17.37;;;11.50;;
11346;SDS011;5728;42.722;23.258;2024-03-06T00:26:33;20.63;;;11.90;;
11346;SDS011;5728;42.722;23.258;2024-03-06T00:29:00;23.77;;;12.23;;
11346;SDS011;5728;42.722;23.258;2024-03-06T00:31:27;17.80;;;10.50;;
11346;SDS011;5728;42.722;23.258;2024-03-06T00:33:54;20.53;;;11.03;;
11346;SDS011;5728;42.722;23.258;2024-03-06T00:36:21;19.13;;;11.63;;
11346;SDS011;5728;42.722;23.258;2024-03-06T00:38:50;17.63;;;10.13;;
11346;SDS011;5728;42.722;23.258;2024-03-06T00:41:17;18.53;;;10.83;;
11346;SDS011;5728;42.722;23.258;2024-03-06T00:43:44;20.90;;;12.07;;
11346;SDS011;5728;42.722;23.258;2024-03-06T00:46:11;19.87;;;12.43;;
11346;SDS011;5728;42.722;23.258;2024-03-06T00:48:38;17.67;;;11.80;;
11346;SDS011;5728;42.722;23.258;2024-03-06T00:51:05;18.63;;;11.77;;
11346;SDS011;5728;42.722;23.258;2024-03-06T00:53:32;18.73;;;11.30;;
11346;SDS011;5728;42.722;23.258;2024-03-06T00:56:01;21.60;;;12.10;;
11346;SDS011;5728;42.722;23.258;2024-03-06T00:58:28;19.13;;;11.90;;
11346;SDS011;5728;42.722;23.258;2024-03-06T01:00:55;20.10;;;11.60;;
11346;SDS011;5728;42.722;23.258;2024-03-06T01:03:23;23.37;;;11.87;;
11346;SDS011;5728;42.722;23.258;2024-03-06T01:05:50;19.00;;;11.03;;
11346;SDS011;5728;42.722;23.258;2024-03-06T01:08:18;24.83;;;13.33;;
11346;SDS011;5728;42.722;23.258;2024-03-06T01:10:45;22.23;;;11.57;;
11346;SDS011;5728;42.722;23.258;2024-03-06T01:13:13;20.10;;;11.57;;
11346;SDS011;5728;42.722;23.258;2024-03-06T01:15:41;21.40;;;11.97;;
11346;SDS011;5728;42.722;23.258;2024-03-06T01:18:07;22.80;;;13.33;;
11346;SDS011;5728;42.722;23.258;2024-03-06T01:20:35;27.07;;;15.73;;
11346;SDS011;5728;42.722;23.258;2024-03-06T01:23:02;22.03;;;15.20;;
11346;SDS011;5728;42.722;23.258;2024-03-06T01:25:29;24.07;;;14.97;;
11346;SDS011;5728;42.722;23.258;2024-03-06T01:27:56;25.67;;;13.97;;
11346;SDS011;5728;42.722;23.258;2024-03-06T01:30:24;20.83;;;12.67;;
11346;SDS011;5728;42.722;23.258;2024-03-06T01:32:51;21.63;;;12.50;;
11346;SDS011;5728;42.722;23.258;2024-03-06T01:35:18;21.57;;;12.60;;
11346;SDS011;5728;42.722;23.258;2024-03-06T01:37:45;24.53;;;13.23;;
11346;SDS011;5728;42.722;23.258;2024-03-06T01:40:12;23.00;;;13.80;;
11346;SDS011;5728;42.722;23.258;2024-03-06T01:42:39;20.57;;;12.43;;
11346;SDS011;5728;42.722;23.258;2024-03-06T01:45:07;23.07;;;13.77;;
11346;SDS011;5728;42.722;23.258;2024-03-06T01:47:36;21.17;;;11.60;;
11346;SDS011;5728;42.722;23.258;2024-03-06T01:50:04;20.27;;;10.67;;
11346;SDS011;5728;42.722;23.258;2024-03-06T01:52:34;21.60;;;12.90;;
11346;SDS011;5728;42.722;23.258;2024-03-06T01:55:02;17.73;;;11.83;;
11346;SDS011;5728;42.722;23.258;2024-03-06T01:57:31;24.30;;;12.83;;
11346;SDS011;5728;42.722;23.258;2024-03-06T01:59:59;18.27;;;11.50;;
11346;SDS011;5728;42.722;23.258;2024-03-06T02:02:26;24.57;;;13.33;;
11346;SDS011;5728;42.722;23.258;2024-03-06T02:04:55;24.13;;;13.43;;
11346;SDS011;5728;42.722;23.258;2024-03-06T02:07:24;23.67;;;13.30;;
11346;SDS011;5728;42.722;23.258;2024-03-06T02:09:52;22.03;;;14.33;;
11346;SDS011;5728;42.722;23.258;2024-03-06T02:12:19;24.27;;;14.27;;
11346;SDS011;5728;42.722;23.258;2024-03-06T02:14:46;24.43;;;14.33;;
11346;SDS011;5728;42.722;23.258;2024-03-06T02:17:13;24.10;;;13.53;;
11346;SDS011;5728;42.722;23.258;2024-03-06T02:19:40;20.33;;;12.10;;
11346;SDS011;5728;42.722;23.258;2024-03-06T02:22:10;22.03;;;13.03;;
11346;SDS011;5728;42.722;23.258;2024-03-06T02:24:37;20.37;;;12.53;;
11346;SDS011;5728;42.722;23.258;2024-03-06T02:27:09;21.00;;;12.17;;
11346;SDS011;5728;42.722;23.258;2024-03-06T02:29:36;19.83;;;12.20;;
11346;SDS011;5728;42.722;23.258;2024-03-06T02:32:03;19.90;;;12.23;;
11346;SDS011;5728;42.722;23.258;2024-03-06T02:34:30;25.40;;;12.87;;
11346;SDS011;5728;42.722;23.258;2024-03-06T02:36:57;21.93;;;13.03;;
11346;SDS011;5728;42.722;23.258;2024-03-06T02:39:25;22.53;;;13.93;;
11346;SDS011;5728;42.722;23.258;2024-03-06T02:41:52;18.30;;;11.47;;
11346;SDS011;5728;42.722;23.258;2024-03-06T02:44:19;31.07;;;12.90;;
11346;SDS011;5728;42.722;23.258;2024-03-06T02:46:46;26.93;;;13.07;;
11346;SDS011;5728;42.722;23.258;2024-03-06T02:49:14;18.80;;;12.27;;
11346;SDS011;5728;42.722;23.258;2024-03-06T02:51:42;22.50;;;13.77;;
11346;SDS011;5728;42.722;23.258;2024-03-06T02:54:08;30.33;;;13.80;;
11346;SDS011;5728;42.722;23.258;2024-03-06T02:56:37;26.73;;;14.17;;
11346;SDS011;5728;42.722;23.258;2024-03-06T02:59:04;27.23;;;13.43;;
11346;SDS011;5728;42.722;23.258;2024-03-06T03:01:31;28.70;;;13.97;;
11346;SDS011;5728;42.722;23.258;2024-03-06T03:03:58;28.77;;;14.90;;
11346;SDS011;5728;42.722;23.258;2024-03-06T03:06:25;24.53;;;14.73;;
11346;SDS011;5728;42.722;23.258;2024-03-06T03:08:52;26.27;;;14.33;;
11346;SDS011;5728;42.722;23.258;2024-03-06T03:11:19;25.83;;;14.07;;
11346;SDS011;5728;42.722;23.258;2024-03-06T03:13:47;25.87;;;14.20;;
11346;SDS011;5728;42.722;23.258;2024-03-06T03:16:17;23.70;;;12.57;;
11346;SDS011;5728;42.722;23.258;2024-03-06T03:18:45;24.10;;;13.80;;
11346;SDS011;5728;42.722;23.258;2024-03-06T03:21:12;21.80;;;13.27;;
11346;SDS011;5728;42.722;23.258;2024-03-06T03:23:40;22.23;;;12.73;;
11346;SDS011;5728;42.722;23.258;2024-03-06T03:26:07;21.57;;;12.53;;
11346;SDS011;5728;42.722;23.258;2024-03-06T03:28:37;19.47;;;11.10;;
11346;SDS011;5728;42.722;23.258;2024-03-06T03:31:06;27.67;;;11.80;;
11346;SDS011;5728;42.722;23.258;2024-03-06T03:33:34;16.17;;;12.03;;
11346;SDS011;5728;42.722;23.258;2024-03-06T03:36:04;22.70;;;11.53;;
11346;SDS011;5728;42.722;23.258;2024-03-06T03:38:32;20.37;;;11.67;;
11346;SDS011;5728;42.722;23.258;2024-03-06T03:41:01;23.00;;;12.87;;
11346;SDS011;5728;42.722;23.258;2024-03-06T03:43:29;16.63;;;11.40;;
11346;SDS011;5728;42.722;23.258;2024-03-06T03:45:58;21.13;;;11.33;;
11346;SDS011;5728;42.722;23.258;2024-03-06T03:48:26;20.57;;;12.47;;
11346;SDS011;5728;42.722;23.258;2024-03-06T03:50:53;20.37;;;11.50;;
11346;SDS011;5728;42.722;23.258;2024-03-06T03:53:20;19.20;;;11.47;;
11346;SDS011;5728;42.722;23.258;2024-03-06T03:55:47;19.80;;;12.07;;
11346;SDS011;5728;42.722;23.258;2024-03-06T03:58:14;19.60;;;11.10;;
11346;SDS011;5728;42.722;23.258;2024-03-06T04:00:41;20.73;;;11.67;;
11346;SDS011;5728;42.722;23.258;2024-03-06T04:03:08;19.30;;;11.10;;
11346;SDS011;5728;42.722;23.258;2024-03-06T04:05:36;19.83;;;11.87;;
11346;SDS011;5728;42.722;23.258;2024-03-06T04:08:03;16.93;;;10.50;;
11346;SDS011;5728;42.722;23.258;2024-03-06T04:10:31;16.63;;;10.47;;
11346;SDS011;5728;42.722;23.258;2024-03-06T04:12:59;26.97;;;11.70;;
11346;SDS011;5728;42.722;23.258;2024-03-06T04:15:26;21.20;;;11.80;;
11346;SDS011;5728;42.722;23.258;2024-03-06T04:17:53;19.10;;;11.87;;
11346;SDS011;5728;42.722;23.258;2024-03-06T04:20:20;20.03;;;12.17;;
11346;SDS011;5728;42.722;23.258;2024-03-06T04:22:48;20.67;;;11.93;;
11346;SDS011;5728;42.722;23.258;2024-03-06T04:25:16;20.63;;;11.40;;
11346;SDS011;5728;42.722;23.258;2024-03-06T04:27:43;20.17;;;11.27;;
11346;SDS011;5728;42.722;23.258;2024-03-06T04:30:11;17.50;;;11.20;;
11346;SDS011;5728;42.722;23.258;2024-03-06T04:32:39;23.80;;;13.07;;
11346;SDS011;5728;42.722;23.258;2024-03-06T04:35:06;22.67;;;12.40;;
11346;SDS011;5728;42.722;23.258;2024-03-06T04:37:34;20.10;;;12.07;;
11346;SDS011;5728;42.722;23.258;2024-03-06T04:40:04;21.00;;;11.43;;
11346;SDS011;5728;42.722;23.258;2024-03-06T04:42:33;21.50;;;11.50;;
11346;SDS011;5728;42.722;23.258;2024-03-06T04:45:01;21.00;;;11.27;;
11346;SDS011;5728;42.722;23.258;2024-03-06T04:47:29;20.13;;;11.70;;
11346;SDS011;5728;42.722;23.258;2024-03-06T04:49:56;20.27;;;11.03;;
11346;SDS011;5728;42.722;23.258;2024-03-06T04:52:24;25.60;;;11.50;;
11346;SDS011;5728;42.722;23.258;2024-03-06T04:54:51;17.33;;;10.57;;
11346;SDS011;5728;42.722;23.258;2024-03-06T04:57:19;18.23;;;11.67;;
11346;SDS011;5728;42.722;23.258;2024-03-06T04:59:46;15.67;;;9.67;;
11346;SDS011;5728;42.722;23.258;2024-03-06T05:02:13;17.40;;;10.83;;
11346;SDS011;5728;42.722;23.258;2024-03-06T05:04:40;18.60;;;9.93;;
11346;SDS011;5728;42.722;23.258;2024-03-06T05:07:08;16.27;;;9.80;;
11346;SDS011;5728;42.722;23.258;2024-03-06T05:09:35;15.77;;;9.87;;
11346;SDS011;5728;42.722;23.258;2024-03-06T05:12:02;15.40;;;9.97;;
11346;SDS011;5728;42.722;23.258;2024-03-06T05:14:31;21.40;;;10.63;;
11346;SDS011;5728;42.722;23.258;2024-03-06T05:16:58;17.97;;;11.00;;
11346;SDS011;5728;42.722;23.258;2024-03-06T05:19:26;19.30;;;10.17;;
11346;SDS011;5728;42.722;23.258;2024-03-06T05:21:57;19.70;;;10.47;;
11346;SDS011;5728;42.722;23.258;2024-03-06T05:24:23;16.00;;;10.23;;
11346;SDS011;5728;42.722;23.258;2024-03-06T05:26:50;21.10;;;11.07;;
11346;SDS011;5728;42.722;23.258;2024-03-06T05:29:17;18.37;;;11.33;;
11346;SDS011;5728;42.722;23.258;2024-03-06T05:31:46;17.23;;;10.37;;
11346;SDS011;5728;42.722;23.258;2024-03-06T05:34:13;19.00;;;11.20;;
11346;SDS011;5728;42.722;23.258;2024-03-06T05:36:40;21.60;;;12.67;;
11346;SDS011;5728;42.722;23.258;2024-03-06T05:39:07;27.87;;;14.33;;
11346;SDS011;5728;42.722;23.258;2024-03-06T05:41:37;28.40;;;12.90;;
11346;SDS011;5728;42.722;23.258;2024-03-06T05:44:04;25.47;;;14.77;;
11346;SDS011;5728;42.722;23.258;2024-03-06T05:46:31;26.70;;;14.83;;
11346;SDS011;5728;42.722;23.258;2024-03-06T05:49:00;29.73;;;15.33;;
11346;SDS011;5728;42.722;23.258;2024-03-06T05:51:27;27.90;;;14.37;;
11346;SDS011;5728;42.722;23.258;2024-03-06T05:53:54;25.27;;;13.17;;
11346;SDS011;5728;42.722;23.258;2024-03-06T05:56:21;24.00;;;12.57;;
11346;SDS011;5728;42.722;23.258;2024-03-06T05:58:48;25.13;;;14.20;;
11346;SDS011;5728;42.722;23.258;2024-03-06T06:01:15;20.07;;;11.47;;
11346;SDS011;5728;42.722;23.258;2024-03-06T06:03:45;21.67;;;11.43;;
11346;SDS011;5728;42.722;23.258;2024-03-06T06:06:14;21.13;;;11.77;;
11346;SDS011;5728;42.722;23.258;2024-03-06T06:08:41;26.20;;;14.40;;
11346;SDS011;5728;42.722;23.258;2024-03-06T06:11:09;31.33;;;16.83;;
11346;SDS011;5728;42.722;23.258;2024-03-06T06:13:36;42.10;;;18.47;;
11346;SDS011;5728;42.722;23.258;2024-03-06T06:16:03;39.30;;;18.53;;
11346;SDS011;5728;42.722;23.258;2024-03-06T06:18:31;31.77;;;16.63;;
11346;SDS011;5728;42.722;23.258;2024-03-06T06:20:58;29.17;;;16.23;;
11346;SDS011;5728;42.722;23.258;2024-03-06T06:23:27;31.27;;;16.60;;
11346;SDS011;5728;42.722;23.258;2024-03-06T06:25:54;32.00;;;16.10;;
11346;SDS011;5728;42.722;23.258;2024-03-06T06:28:21;21.57;;;13.60;;
11346;SDS011;5728;42.722;23.258;2024-03-06T06:30:49;23.53;;;12.27;;
11346;SDS011;5728;42.722;23.258;2024-03-06T06:33:17;25.57;;;14.33;;
11346;SDS011;5728;42.722;23.258;2024-03-06T06:35:46;36.87;;;15.93;;
11346;SDS011;5728;42.722;23.258;2024-03-06T06:38:13;36.80;;;18.77;;
11346;SDS011;5728;42.722;23.258;2024-03-06T06:40:41;49.60;;;22.37;;
11346;SDS011;5728;42.722;23.258;2024-03-06T06:43:08;35.90;;;21.07;;
11346;SDS011;5728;42.722;23.258;2024-03-06T06:45:35;38.30;;;18.83;;
11346;SDS011;5728;42.722;23.258;2024-03-06T06:48:03;28.23;;;16.30;;
11346;SDS011;5728;42.722;23.258;2024-03-06T06:50:30;18.33;;;12.60;;
11346;SDS011;5728;42.722;23.258;2024-03-06T06:52:58;18.73;;;12.33;;
11346;SDS011;5728;42.722;23.258;2024-03-06T06:55:25;23.47;;;12.00;;
11346;SDS011;5728;42.722;23.258;2024-03-06T06:57:54;19.80;;;11.43;;
11346;SDS011;5728;42.722;23.258;2024-03-06T07:00:22;27.10;;;13.03;;
11346;SDS011;5728;42.722;23.258;2024-03-06T07:02:50;27.77;;;13.13;;
11346;SDS011;5728;42.722;23.258;2024-03-06T07:05:17;28.17;;;14.80;;
11346;SDS011;5728;42.722;23.258;2024-03-06T07:07:45;23.13;;;13.97;;
11346;SDS011;5728;42.722;23.258;2024-03-06T07:10:12;26.80;;;13.93;;
11346;SDS011;5728;42.722;23.258;2024-03-06T07:12:39;31.33;;;15.27;;
11346;SDS011;5728;42.722;23.258;2024-03-06T07:15:08;26.17;;;14.33;;
11346;SDS011;5728;42.722;23.258;2024-03-06T07:17:35;27.10;;;14.50;;
11346;SDS011;5728;42.722;23.258;2024-03-06T07:20:02;20.83;;;13.17;;
11346;SDS011;5728;42.722;23.258;2024-03-06T07:22:33;24.57;;;14.40;;
11346;SDS011;5728;42.722;23.258;2024-03-06T07:25:00;20.43;;;13.37;;
11346;SDS011;5728;42.722;23.258;2024-03-06T07:27:27;25.37;;;14.07;;
11346;SDS011;5728;42.722;23.258;2024-03-06T07:29:54;24.60;;;14.00;;
11346;SDS011;5728;42.722;23.258;2024-03-06T07:32:23;22.73;;;14.70;;
11346;SDS011;5728;42.722;23.258;2024-03-06T07:34:50;54.37;;;27.73;;
11346;SDS011;5728;42.722;23.258;2024-03-06T07:37:17;65.13;;;33.00;;
11346;SDS011;5728;42.722;23.258;2024-03-06T07:39:44;27.43;;;15.83;;
11346;SDS011;5728;42.722;23.258;2024-03-06T07:42:12;33.93;;;14.83;;
11346;SDS011;5728;42.722;23.258;2024-03-06T07:44:40;28.97;;;17.20;;
11346;SDS011;5728;42.722;23.258;2024-03-06T07:47:07;40.07;;;18.53;;
11346;SDS011;5728;42.722;23.258;2024-03-06T07:49:36;40.63;;;22.63;;
11346;SDS011;5728;42.722;23.258;2024-03-06T07:52:03;30.50;;;18.10;;
11346;SDS011;5728;42.722;23.258;2024-03-06T07:54:30;32.80;;;16.70;;
11346;SDS011;5728;42.722;23.258;2024-03-06T07:56:58;22.90;;;14.33;;
11346;SDS011;5728;42.722;23.258;2024-03-06T07:59:25;25.33;;;14.83;;
11346;SDS011;5728;42.722;23.258;2024-03-06T08:01:52;24.60;;;13.83;;
11346;SDS011;5728;42.722;23.258;2024-03-06T08:04:21;27.87;;;16.17;;
11346;SDS011;5728;42.722;23.258;2024-03-06T08:06:50;35.67;;;15.70;;
11346;SDS011;5728;42.722;23.258;2024-03-06T08:09:16;19.60;;;13.27;;
11346;SDS011;5728;42.722;23.258;2024-03-06T08:11:44;25.80;;;15.17;;
11346;SDS011;5728;42.722;23.258;2024-03-06T08:14:11;25.13;;;15.83;;
11346;SDS011;5728;42.722;23.258;2024-03-06T08:16:39;22.63;;;14.73;;
11346;SDS011;5728;42.722;23.258;2024-03-06T08:19:07;28.53;;;15.10;;
11346;SDS011;5728;42.722;23.258;2024-03-06T08:21:34;20.67;;;13.57;;
11346;SDS011;5728;42.722;23.258;2024-03-06T08:24:03;24.03;;;15.73;;
11346;SDS011;5728;42.722;23.258;2024-03-06T08:26:30;31.50;;;15.07;;
11346;SDS011;5728;42.722;23.258;2024-03-06T08:28:58;30.40;;;16.77;;
11346;SDS011;5728;42.722;23.258;2024-03-06T08:31:25;26.17;;;14.80;;
11346;SDS011;5728;42.722;23.258;2024-03-06T08:33:52;26.93;;;14.93;;
11346;SDS011;5728;42.722;23.258;2024-03-06T08:36:19;23.23;;;15.67;;
11346;SDS011;5728;42.722;23.258;2024-03-06T08:38:46;27.83;;;15.40;;
11346;SDS011;5728;42.722;23.258;2024-03-06T08:41:14;24.63;;;14.67;;
11346;SDS011;5728;42.722;23.258;2024-03-06T08:43:41;26.80;;;15.60;;
11346;SDS011;5728;42.722;23.258;2024-03-06T08:46:08;29.10;;;14.67;;
11346;SDS011;5728;42.722;23.258;2024-03-06T08:48:35;24.27;;;13.47;;
11346;SDS011;5728;42.722;23.258;2024-03-06T08:51:02;25.27;;;14.90;;
11346;SDS011;5728;42.722;23.258;2024-03-06T08:53:35;26.90;;;14.70;;
11346;SDS011;5728;42.722;23.258;2024-03-06T08:56:04;23.53;;;14.07;;
11346;SDS011;5728;42.722;23.258;2024-03-06T08:58:33;26.75;;;13.38;;
11346;SDS011;5728;42.722;23.258;2024-03-06T09:00:59;19.80;;;13.00;;
11346;SDS011;5728;42.722;23.258;2024-03-06T09:03:26;23.27;;;12.50;;
11346;SDS011;5728;42.722;23.258;2024-03-06T09:05:54;25.00;;;13.32;;
11346;SDS011;5728;42.722;23.258;2024-03-06T09:08:20;21.95;;;13.43;;
11346;SDS011;5728;42.722;23.258;2024-03-06T09:10:47;22.48;;;12.40;;
11346;SDS011;5728;42.722;23.258;2024-03-06T09:13:14;21.60;;;11.85;;
11346;SDS011;5728;42.722;23.258;2024-03-06T09:15:43;19.80;;;12.07;;
11346;SDS011;5728;42.722;23.258;2024-03-06T09:18:10;25.67;;;13.02;;
11346;SDS011;5728;42.722;23.258;2024-03-06T09:20:37;22.52;;;11.20;;
11346;SDS011;5728;42.722;23.258;2024-03-06T09:23:04;20.73;;;11.88;;
11346;SDS011;5728;42.722;23.258;2024-03-06T09:25:31;17.02;;;10.73;;
11346;SDS011;5728;42.722;23.258;2024-03-06T09:27:58;21.25;;;11.07;;
11346;SDS011;5728;42.722;23.258;2024-03-06T09:30:29;17.55;;;10.30;;
11346;SDS011;5728;42.722;23.258;2024-03-06T09:32:58;19.70;;;10.35;;
11346;SDS011;5728;42.722;23.258;2024-03-06T09:35:25;14.98;;;9.75;;
11346;SDS011;5728;42.722;23.258;2024-03-06T09:37:51;14.73;;;9.70;;
11346;SDS011;5728;42.722;23.258;2024-03-06T09:40:19;16.83;;;9.15;;
11346;SDS011;5728;42.722;23.258;2024-03-06T09:42:48;14.60;;;9.02;;
11346;SDS011;5728;42.722;23.258;2024-03-06T09:45:15;15.95;;;8.70;;
11346;SDS011;5728;42.722;23.258;2024-03-06T09:47:42;17.80;;;9.10;;
11346;SDS011;5728;42.722;23.258;2024-03-06T09:50:12;15.60;;;8.27;;
11346;SDS011;5728;42.722;23.258;2024-03-06T09:52:45;10.60;;;7.30;;
11346;SDS011;5728;42.722;23.258;2024-03-06T09:55:17;12.75;;;7.40;;
11346;SDS011;5728;42.722;23.258;2024-03-06T09:57:44;14.07;;;7.70;;
11346;SDS011;5728;42.722;23.258;2024-03-06T10:00:11;14.55;;;7.88;;
11346;SDS011;5728;42.722;23.258;2024-03-06T10:02:38;12.88;;;8.05;;
11346;SDS011;5728;42.722;23.258;2024-03-06T10:05:22;11.23;;;7.43;;
11346;SDS011;5728;42.722;23.258;2024-03-06T10:07:50;11.90;;;8.18;;
11346;SDS011;5728;42.722;23.258;2024-03-06T10:10:18;14.35;;;7.85;;
11346;SDS011;5728;42.722;23.258;2024-03-06T10:12:45;7.90;;;6.70;;
11346;SDS011;5728;42.722;23.258;2024-03-06T10:15:14;11.68;;;7.13;;
11346;SDS011;5728;42.722;23.258;2024-03-06T10:17:41;9.90;;;7.07;;
11346;SDS011;5728;42.722;23.258;2024-03-06T10:20:17;9.10;;;6.93;;
11346;SDS011;5728;42.722;23.258;2024-03-06T10:22:48;14.52;;;7.20;;
11346;SDS011;5728;42.722;23.258;2024-03-06T10:25:18;11.25;;;7.40;;
11346;SDS011;5728;42.722;23.258;2024-03-06T10:27:46;11.63;;;7.15;;
11346;SDS011;5728;42.722;23.258;2024-03-06T10:30:14;13.27;;;8.02;;
11346;SDS011;5728;42.722;23.258;2024-03-06T10:32:41;8.23;;;5.70;;
11346;SDS011;5728;42.722;23.258;2024-03-06T10:35:17;9.88;;;6.40;;
11346;SDS011;5728;42.722;23.258;2024-03-06T10:37:45;12.07;;;7.30;;
11346;SDS011;5728;42.722;23.258;2024-03-06T10:40:15;11.10;;;6.82;;
11346;SDS011;5728;42.722;23.258;2024-03-06T10:42:44;10.20;;;6.80;;
11346;SDS011;5728;42.722;23.258;2024-03-06T10:45:13;11.77;;;6.25;;
11346;SDS011;5728;42.722;23.258;2024-03-06T10:47:44;11.63;;;6.35;;
11346;SDS011;5728;42.722;23.258;2024-03-06T10:50:14;12.95;;;6.47;;
11346;SDS011;5728;42.722;23.258;2024-03-06T10:52:42;8.43;;;5.85;;
11346;SDS011;5728;42.722;23.258;2024-03-06T10:55:14;9.07;;;5.68;;
11346;SDS011;5728;42.722;23.258;2024-03-06T10:57:42;10.27;;;6.10;;
11346;SDS011;5728;42.722;23.258;2024-03-06T11:00:10;8.90;;;6.20;;
11346;SDS011;5728;42.722;23.258;2024-03-06T11:02:45;12.18;;;6.45;;
11346;SDS011;5728;42.722;23.258;2024-03-06T11:05:14;8.10;;;5.82;;
11346;SDS011;5728;42.722;23.258;2024-03-06T11:07:42;13.70;;;7.10;;
11346;SDS011;5728;42.722;23.258;2024-03-06T11:10:09;16.08;;;6.80;;
11346;SDS011;5728;42.722;23.258;2024-03-06T11:12:43;7.20;;;6.10;;
11346;SDS011;5728;42.722;23.258;2024-03-06T11:15:14;7.22;;;5.57;;
11346;SDS011;5728;42.722;23.258;2024-03-06T11:17:42;11.05;;;5.80;;
11346;SDS011;5728;42.722;23.258;2024-03-06T11:20:13;8.65;;;5.22;;
11346;SDS011;5728;42.722;23.258;2024-03-06T11:23:02;9.07;;;6.13;;
11346;SDS011;5728;42.722;23.258;2024-03-06T11:28:32;9.45;;;5.43;;
11346;SDS011;5728;42.722;23.258;2024-03-06T11:31:00;7.88;;;5.70;;
11346;SDS011;5728;42.722;23.258;2024-03-06T11:33:28;7.45;;;5.05;;
11346;SDS011;5728;42.722;23.258;2024-03-06T11:36:15;9.30;;;5.53;;
11346;SDS011;5728;42.722;23.258;2024-03-06T11:38:46;6.80;;;4.78;;
11346;SDS011;5728;42.722;23.258;2024-03-06T11:41:14;9.25;;;4.93;;
11346;SDS011;5728;42.722;23.258;2024-03-06T11:43:44;8.45;;;5.25;;
11346;SDS011;5728;42.722;23.258;2024-03-06T11:46:11;6.25;;;5.28;;
11346;SDS011;5728;42.722;23.258;2024-03-06T11:48:38;9.30;;;5.32;;
11346;SDS011;5728;42.722;23.258;2024-03-06T11:51:06;9.88;;;5.40;;
11346;SDS011;5728;42.722;23.258;2024-03-06T11:53:33;9.07;;;5.85;;
11346;SDS011;5728;42.722;23.258;2024-03-06T11:56:01;9.27;;;5.10;;
11346;SDS011;5728;42.722;23.258;2024-03-06T11:58:32;7.10;;;5.00;;
11346;SDS011;5728;42.722;23.258;2024-03-06T12:01:00;8.70;;;5.30;;
11346;SDS011;5728;42.722;23.258;2024-03-06T12:03:28;9.70;;;5.20;;
11346;SDS011;5728;42.722;23.258;2024-03-06T12:05:55;9.68;;;5.50;;
11346;SDS011;5728;42.722;23.258;2024-03-06T12:08:22;7.97;;;4.95;;
11346;SDS011;5728;42.722;23.258;2024-03-06T12:10:49;8.35;;;5.03;;
11346;SDS011;5728;42.722;23.258;2024-03-06T12:13:17;8.70;;;5.32;;
11346;SDS011;5728;42.722;23.258;2024-03-06T12:15:46;10.13;;;6.05;;
11346;SDS011;5728;42.722;23.258;2024-03-06T12:18:16;36.13;;;19.27;;
11346;SDS011;5728;42.722;23.258;2024-03-06T12:20:43;26.65;;;11.57;;
11346;SDS011;5728;42.722;23.258;2024-03-06T12:23:18;25.77;;;10.43;;
11346;SDS011;5728;42.722;23.258;2024-03-06T12:25:48;14.50;;;6.38;;
11346;SDS011;5728;42.722;23.258;2024-03-06T12:28:15;7.68;;;6.15;;
11346;SDS011;5728;42.722;23.258;2024-03-06T12:30:43;8.35;;;5.75;;
11346;SDS011;5728;42.722;23.258;2024-03-06T12:33:11;8.13;;;5.30;;
11346;SDS011;5728;42.722;23.258;2024-03-06T12:35:45;10.70;;;5.22;;
11346;SDS011;5728;42.722;23.258;2024-03-06T12:38:13;8.65;;;5.55;;
11346;SDS011;5728;42.722;23.258;2024-03-06T12:40:41;8.38;;;5.10;;
11346;SDS011;5728;42.722;23.258;2024-03-06T12:43:08;11.55;;;5.65;;
11346;SDS011;5728;42.722;23.258;2024-03-06T12:45:36;7.38;;;6.25;;
11346;SDS011;5728;42.722;23.258;2024-03-06T12:48:04;8.82;;;4.78;;
11346;SDS011;5728;42.722;23.258;2024-03-06T12:50:33;5.53;;;4.18;;
11346;SDS011;5728;42.722;23.258;2024-03-06T12:53:00;8.55;;;4.72;;
11346;SDS011;5728;42.722;23.258;2024-03-06T12:55:29;13.35;;;5.60;;
11346;SDS011;5728;42.722;23.258;2024-03-06T12:57:57;5.70;;;4.22;;
11346;SDS011;5728;42.722;23.258;2024-03-06T13:00:23;8.82;;;4.43;;
11346;SDS011;5728;42.722;23.258;2024-03-06T13:02:51;8.43;;;4.35;;
11346;SDS011;5728;42.722;23.258;2024-03-06T13:05:18;7.55;;;4.53;;
11346;SDS011;5728;42.722;23.258;2024-03-06T13:07:46;8.48;;;3.88;;
11346;SDS011;5728;42.722;23.258;2024-03-06T13:10:14;7.45;;;4.30;;
11346;SDS011;5728;42.722;23.258;2024-03-06T13:12:41;10.90;;;4.65;;
11346;SDS011;5728;42.722;23.258;2024-03-06T13:15:25;7.88;;;4.43;;
11346;SDS011;5728;42.722;23.258;2024-03-06T13:17:52;5.28;;;3.85;;
11346;SDS011;5728;42.722;23.258;2024-03-06T13:20:19;17.50;;;4.82;;
11346;SDS011;5728;42.722;23.258;2024-03-06T13:22:48;9.60;;;4.47;;
11346;SDS011;5728;42.722;23.258;2024-03-06T13:25:15;8.07;;;4.18;;
11346;SDS011;5728;42.722;23.258;2024-03-06T13:27:42;4.97;;;4.38;;
11346;SDS011;5728;42.722;23.258;2024-03-06T13:30:09;8.95;;;4.40;;
11346;SDS011;5728;42.722;23.258;2024-03-06T13:32:37;6.53;;;4.28;;
11346;SDS011;5728;42.722;23.258;2024-03-06T13:35:05;5.93;;;4.20;;
11346;SDS011;5728;42.722;23.258;2024-03-06T13:37:37;4.80;;;3.65;;
11346;SDS011;5728;42.722;23.258;2024-03-06T13:40:06;6.28;;;4.45;;
11346;SDS011;5728;42.722;23.258;2024-03-06T13:42:35;5.38;;;3.85;;
11346;SDS011;5728;42.722;23.258;2024-03-06T13:45:03;22.75;;;4.55;;
11346;SDS011;5728;42.722;23.258;2024-03-06T13:47:36;9.60;;;4.60;;
11346;SDS011;5728;42.722;23.258;2024-03-06T13:50:04;6.00;;;4.35;;
11346;SDS011;5728;42.722;23.258;2024-03-06T13:52:33;6.90;;;5.10;;
11346;SDS011;5728;42.722;23.258;2024-03-06T13:55:00;5.88;;;4.35;;
11346;SDS011;5728;42.722;23.258;2024-03-06T13:57:31;9.52;;;5.18;;
11346;SDS011;5728;42.722;23.258;2024-03-06T14:00:00;12.90;;;5.03;;
11346;SDS011;5728;42.722;23.258;2024-03-06T14:02:28;6.15;;;4.28;;
11346;SDS011;5728;42.722;23.258;2024-03-06T14:04:55;7.22;;;4.45;;
11346;SDS011;5728;42.722;23.258;2024-03-06T14:07:22;6.43;;;4.90;;
11346;SDS011;5728;42.722;23.258;2024-03-06T14:09:49;6.32;;;4.57;;
11346;SDS011;5728;42.722;23.258;2024-03-06T14:12:16;8.98;;;4.32;;
11346;SDS011;5728;42.722;23.258;2024-03-06T14:14:45;7.50;;;4.82;;
11346;SDS011;5728;42.722;23.258;2024-03-06T14:17:12;6.93;;;4.80;;
11346;SDS011;5728;42.722;23.258;2024-03-06T14:19:39;10.73;;;4.68;;
11346;SDS011;5728;42.722;23.258;2024-03-06T14:22:06;17.10;;;5.35;;
11346;SDS011;5728;42.722;23.258;2024-03-06T14:24:34;8.15;;;5.00;;
11346;SDS011;5728;42.722;23.258;2024-03-06T14:27:01;6.97;;;4.63;;
11346;SDS011;5728;42.722;23.258;2024-03-06T14:29:29;6.13;;;4.53;;
11346;SDS011;5728;42.722;23.258;2024-03-06T14:31:57;10.60;;;5.93;;
11346;SDS011;5728;42.722;23.258;2024-03-06T14:34:24;7.80;;;5.88;;
11346;SDS011;5728;42.722;23.258;2024-03-06T14:36:52;17.60;;;6.33;;